Time;durP1;ratioP1;P1;durP2;ratioP2;P2;SDS_P1;SDS_P2;PMS_P1;PMS_P2;Temp;Humidity;BMP_temperature;BMP_pressure;BME280_temperature;BME280_humidity;BME280_pressure;Samples;Min_cycle;Max_cycle;Signal;HPM_P1;HPM_P2
2022/10/29 00:00:26;;;;;;;12.63;4.15;;;10.70;99.90;;;;;;5014538;28;20033;-77
2022/10/29 00:02:52;;;;;;;14.77;3.95;;;10.60;99.90;;;;;;5014590;28;20042;-77
2022/10/29 00:05:18;;;;;;;11.77;4.03;;;10.60;99.90;;;;;;5014562;28;20025;-77
2022/10/29 00:07:43;;;;;;;16.10;3.92;;;10.50;99.90;;;;;;5014549;28;20034;-77
2022/10/29 00:10:09;;;;;;;8.95;3.75;;;10.60;99.90;;;;;;5014478;28;20030;-77
2022/10/29 00:12:35;;;;;;;15.07;3.63;;;10.50;99.90;;;;;;5014373;28;20022;-77
2022/10/29 00:15:01;;;;;;;34.35;4.60;;;10.50;99.90;;;;;;5014611;28;20029;-76
2022/10/29 00:17:27;;;;;;;35.10;4.32;;;10.60;99.90;;;;;;5014299;28;20030;-77
2022/10/29 00:19:52;;;;;;;20.58;4.22;;;10.70;99.90;;;;;;5014260;28;20098;-77
2022/10/29 00:22:18;;;;;;;40.47;4.95;;;10.70;99.90;;;;;;5014175;28;20397;-77
2022/10/29 00:24:44;;;;;;;46.17;5.63;;;10.60;99.90;;;;;;5013277;28;20026;-77
2022/10/29 00:27:10;;;;;;;116.80;8.68;;;10.60;99.90;;;;;;5014099;28;20052;-77
2022/10/29 00:29:38;;;;;;;43.00;5.43;;;10.60;99.90;;;;;;5014209;28;20018;-77
2022/10/29 00:32:04;;;;;;;17.38;4.45;;;10.70;99.90;;;;;;5014531;28;20465;-77
2022/10/29 00:34:30;;;;;;;8.95;3.85;;;10.60;99.90;;;;;;5014152;28;20080;-77
2022/10/29 00:36:55;;;;;;;21.52;4.18;;;10.60;99.90;;;;;;5013979;28;20057;-78
2022/10/29 00:39:21;;;;;;;8.20;3.30;;;10.40;99.90;;;;;;5013948;28;20072;-77
2022/10/29 00:41:46;;;;;;;51.42;5.43;;;10.50;99.90;;;;;;5013901;28;20026;-77
2022/10/29 00:44:21;;;;;;;23.42;4.32;;;10.50;99.90;;;;;;5013953;28;20040;-77
2022/10/29 00:47:15;;;;;;;53.88;5.25;;;10.50;99.90;;;;;;5013796;28;20078;-77
2022/10/29 00:49:42;;;;;;;16.63;3.75;;;10.60;99.90;;;;;;5009895;28;20069;-77
2022/10/29 00:52:09;;;;;;;65.38;5.53;;;10.50;99.90;;;;;;5013637;28;20026;-77
2022/10/29 00:54:39;;;;;;;138.23;9.40;;;10.60;99.90;;;;;;5013809;28;20022;-77
2022/10/29 00:57:15;;;;;;;15.80;3.38;;;10.70;99.90;;;;;;4994054;28;20117;-77
2022/10/29 00:59:42;;;;;;;16.15;4.22;;;10.70;99.90;;;;;;4993987;28;20061;-77
2022/10/29 01:02:08;;;;;;;40.13;4.60;;;10.60;99.90;;;;;;4993697;28;20050;-77
2022/10/29 01:04:35;;;;;;;16.33;3.88;;;10.70;99.90;;;;;;4993786;28;20080;-77
2022/10/29 01:07:01;;;;;;;9.00;3.70;;;10.80;99.90;;;;;;4993917;28;20373;-77
2022/10/29 01:09:27;;;;;;;22.98;4.20;;;10.80;99.90;;;;;;4993884;28;20398;-77
2022/10/29 01:12:09;;;;;;;16.70;3.88;;;10.90;99.90;;;;;;4993805;28;20531;-77
2022/10/29 01:15:07;;;;;;;53.88;6.00;;;10.90;1.00;;;;;;5011119;28;20456;-77
2022/10/29 01:17:47;;;;;;;14.57;4.10;;;11.00;1.00;;;;;;5013465;28;20104;-77
2022/10/29 01:20:45;;;;;;;18.85;4.15;;;11.00;1.00;;;;;;5013396;28;20026;-77
2022/10/29 01:23:32;;;;;;;21.90;4.55;;;11.10;1.00;;;;;;5013234;28;20072;-77
2022/10/29 01:26:22;;;;;;;27.10;5.03;;;11.10;1.00;;;;;;5013174;28;20034;-77
2022/10/29 01:29:00;;;;;;;26.73;5.30;;;11.00;1.00;;;;;;5013231;28;20026;-77
2022/10/29 01:31:40;;;;;;;14.90;4.20;;;11.00;1.00;;;;;;5013161;28;20026;-77
2022/10/29 01:34:40;;;;;;;14.88;4.65;;;11.00;1.00;;;;;;5013216;28;20072;-77
2022/10/29 01:37:21;;;;;;;13.18;4.72;;;11.00;1.00;;;;;;4997034;28;20050;-77
2022/10/29 01:40:15;;;;;;;15.20;4.68;;;11.00;1.00;;;;;;5012916;28;20683;-77
2022/10/29 01:43:02;;;;;;;11.70;4.22;;;10.90;99.90;;;;;;5007036;28;20113;-78
2022/10/29 01:45:47;;;;;;;12.27;4.53;;;10.90;99.90;;;;;;5012913;28;20034;-77
2022/10/29 01:48:18;;;;;;;11.38;4.32;;;10.90;1.00;;;;;;5012798;28;20042;-77
2022/10/29 01:50:51;;;;;;;9.40;5.00;;;10.90;99.90;;;;;;5012848;28;20034;-77
2022/10/29 01:53:18;;;;;;;16.42;4.97;;;10.90;99.90;;;;;;5010732;28;20105;-77
2022/10/29 01:55:43;;;;;;;13.43;5.10;;;11.00;99.90;;;;;;4993137;28;20031;-77
2022/10/29 01:58:10;;;;;;;19.88;4.75;;;10.80;99.90;;;;;;4993247;28;20026;-77
2022/10/29 02:00:48;;;;;;;16.60;5.43;;;11.00;99.90;;;;;;4993296;28;20023;-78
2022/10/29 02:03:46;;;;;;;11.15;4.47;;;11.00;99.90;;;;;;4993029;28;20022;-77
2022/10/29 02:06:39;;;;;;;27.33;5.25;;;11.00;99.90;;;;;;4970595;28;20035;-77
2022/10/29 02:09:14;;;;;;;17.63;5.53;;;11.00;1.00;;;;;;4992802;28;20046;-77
2022/10/29 02:11:46;;;;;;;87.88;8.15;;;11.10;1.00;;;;;;4992877;28;20401;-77
2022/10/29 02:14:25;;;;;;;31.92;5.85;;;11.10;1.00;;;;;;4995772;28;20026;-77
2022/10/29 02:16:53;;;;;;;18.08;5.38;;;11.10;1.00;;;;;;4997119;28;20034;-77
2022/10/29 02:19:20;;;;;;;13.65;5.05;;;11.20;1.00;;;;;;4997033;28;20076;-77
2022/10/29 02:21:46;;;;;;;19.70;5.20;;;11.10;1.00;;;;;;4997019;28;20026;-77
2022/10/29 02:24:12;;;;;;;81.13;7.65;;;11.00;1.00;;;;;;4996914;28;20033;-77
2022/10/29 02:26:38;;;;;;;132.43;10.13;;;11.10;1.00;;;;;;4996944;28;20033;-77
2022/10/29 02:29:03;;;;;;;28.55;5.32;;;11.10;1.00;;;;;;4996931;28;20026;-77
2022/10/29 02:31:29;;;;;;;16.50;5.22;;;11.00;1.00;;;;;;4997000;28;20549;-77
2022/10/29 02:33:55;;;;;;;32.63;5.18;;;11.00;1.00;;;;;;4997019;28;20023;-77
2022/10/29 02:36:20;;;;;;;18.85;4.68;;;11.20;1.00;;;;;;4996853;28;20025;-77
2022/10/29 02:38:46;;;;;;;34.90;5.75;;;11.10;1.00;;;;;;4996664;28;20101;-78
2022/10/29 02:41:12;;;;;;;40.53;6.28;;;11.10;1.00;;;;;;4996798;28;20030;-77
2022/10/29 02:43:37;;;;;;;41.67;5.32;;;11.10;1.00;;;;;;4996540;28;20031;-77
2022/10/29 02:46:16;;;;;;;20.98;5.07;;;11.00;1.00;;;;;;4996709;28;20080;-77
2022/10/29 02:48:42;;;;;;;31.25;5.30;;;11.00;1.00;;;;;;4996135;28;20474;-77
2022/10/29 02:51:08;;;;;;;16.20;4.40;;;11.00;1.00;;;;;;4996492;28;20034;-77
2022/10/29 02:53:33;;;;;;;19.55;5.03;;;10.90;1.00;;;;;;4996515;28;20034;-77
2022/10/29 02:55:59;;;;;;;29.45;5.05;;;10.90;1.00;;;;;;4996307;28;20025;-77
2022/10/29 02:58:25;;;;;;;15.45;4.70;;;10.80;1.00;;;;;;4996325;28;20030;-77
2022/10/29 03:00:51;;;;;;;9.75;4.10;;;10.70;1.00;;;;;;4996371;28;20041;-77
2022/10/29 03:03:17;;;;;;;6.18;3.90;;;10.70;1.00;;;;;;4996218;28;20029;-77
2022/10/29 03:05:43;;;;;;;6.30;3.70;;;10.60;99.90;;;;;;4996292;28;20076;-77
2022/10/29 03:08:09;;;;;;;10.55;3.72;;;10.70;1.00;;;;;;4996317;28;20022;-78
2022/10/29 03:10:35;;;;;;;4.20;3.75;;;10.70;1.00;;;;;;4996209;28;20101;-77
2022/10/29 03:13:00;;;;;;;5.20;3.83;;;10.70;1.00;;;;;;4996284;28;20091;-77
2022/10/29 03:15:26;;;;;;;8.07;3.80;;;10.70;1.00;;;;;;4996115;28;20037;-77
2022/10/29 03:17:52;;;;;;;11.02;3.90;;;10.70;1.00;;;;;;4995930;28;20030;-77
2022/10/29 03:20:18;;;;;;;14.60;4.10;;;10.70;1.00;;;;;;4996016;28;20073;-77
2022/10/29 03:22:43;;;;;;;9.20;3.83;;;10.70;1.00;;;;;;4995854;28;20018;-77
2022/10/29 03:25:09;;;;;;;6.15;3.40;;;10.70;1.00;;;;;;4995782;28;20123;-78
2022/10/29 03:27:43;;;;;;;10.73;3.90;;;10.80;1.00;;;;;;4995958;28;20026;-77
2022/10/29 03:30:11;;;;;;;11.05;4.10;;;10.70;1.00;;;;;;4995990;28;20457;-77
2022/10/29 03:32:43;;;;;;;9.10;3.40;;;10.70;1.00;;;;;;4995873;28;20030;-77
2022/10/29 03:35:11;;;;;;;19.63;4.07;;;10.70;1.00;;;;;;4995581;28;20157;-77
2022/10/29 03:37:37;;;;;;;7.82;4.15;;;10.70;1.00;;;;;;4995936;28;20477;-77
2022/10/29 03:40:03;;;;;;;14.05;4.32;;;10.90;1.00;;;;;;4995700;28;20031;-77
2022/10/29 03:42:31;;;;;;;12.35;4.25;;;11.00;1.00;;;;;;4995793;28;20182;-77
2022/10/29 03:44:58;;;;;;;9.43;4.05;;;11.00;1.00;;;;;;4995517;28;20034;-77
2022/10/29 03:47:24;;;;;;;11.68;4.57;;;11.00;1.00;;;;;;4995415;28;20481;-77
2022/10/29 03:49:50;;;;;;;9.95;4.63;;;11.00;1.00;;;;;;4995542;28;20029;-77
2022/10/29 03:52:21;;;;;;;20.27;4.60;;;11.10;1.00;;;;;;4995438;28;20022;-77
2022/10/29 03:54:47;;;;;;;19.25;4.80;;;11.20;1.00;;;;;;4995373;28;20022;-77
2022/10/29 03:57:12;;;;;;;35.88;5.28;;;11.10;1.00;;;;;;4995326;28;20353;-77
2022/10/29 03:59:39;;;;;;;15.57;4.00;;;11.20;1.00;;;;;;4995166;28;20061;-77
2022/10/29 04:02:05;;;;;;;155.18;11.70;;;11.20;1.00;;;;;;4995324;28;20050;-77
2022/10/29 04:04:31;;;;;;;34.47;6.28;;;11.30;1.00;;;;;;5000500;28;20030;-78
2022/10/29 04:06:56;;;;;;;27.52;6.50;;;11.40;1.00;;;;;;5014773;28;20057;-77
2022/10/29 04:09:22;;;;;;;32.45;6.18;;;11.40;1.00;;;;;;5014843;28;20022;-77
2022/10/29 04:11:48;;;;;;;20.45;5.05;;;11.40;1.00;;;;;;5014747;28;20030;-78
2022/10/29 04:14:13;;;;;;;17.63;5.65;;;11.50;1.00;;;;;;5014731;28;20453;-78
2022/10/29 04:16:39;;;;;;;33.47;5.85;;;11.60;1.00;;;;;;5014583;28;20024;-77
2022/10/29 04:19:04;;;;;;;23.75;5.78;;;11.60;1.00;;;;;;5014719;28;20338;-78
2022/10/29 04:21:30;;;;;;;25.27;5.65;;;11.70;1.00;;;;;;5014496;28;20022;-78
2022/10/29 04:23:56;;;;;;;36.05;6.22;;;11.70;1.00;;;;;;5014280;28;20025;-78
2022/10/29 04:26:21;;;;;;;34.75;5.82;;;11.90;1.00;;;;;;5014566;28;20472;-78
2022/10/29 04:28:48;;;;;;;31.90;6.32;;;12.00;1.00;;;;;;5014582;28;20049;-78
2022/10/29 04:31:13;;;;;;;35.67;6.43;;;12.10;1.00;;;;;;5014442;28;20026;-78
2022/10/29 04:33:39;;;;;;;41.20;7.13;;;12.10;1.00;;;;;;5014426;28;20055;-78
2022/10/29 04:36:05;;;;;;;94.20;9.30;;;12.20;1.00;;;;;;5013817;28;20026;-78
2022/10/29 04:38:31;;;;;;;43.58;7.70;;;12.30;1.00;;;;;;5014444;28;20033;-77
2022/10/29 04:41:00;;;;;;;36.28;7.47;;;12.40;1.00;;;;;;5014084;28;20022;-77
2022/10/29 04:43:28;;;;;;;84.07;9.27;;;12.50;1.00;;;;;;5014272;28;20115;-77
2022/10/29 04:45:56;;;;;;;114.88;10.63;;;12.60;1.00;;;;;;5014219;28;20121;-77
2022/10/29 04:48:23;;;;;;;83.32;10.48;;;12.70;1.00;;;;;;5013896;28;20049;-77
2022/10/29 04:50:54;;;;;;;58.88;9.48;;;12.70;1.00;;;;;;5013838;28;20032;-77
2022/10/29 04:53:20;;;;;;;127.40;12.40;;;12.70;1.00;;;;;;5014070;28;20105;-77
2022/10/29 04:55:45;;;;;;;77.70;11.38;;;12.70;1.00;;;;;;5013965;28;20145;-77
2022/10/29 04:58:16;;;;;;;142.23;12.50;;;12.90;1.00;;;;;;5014061;28;20478;-77
2022/10/29 05:00:43;;;;;;;60.55;9.25;;;12.90;1.00;;;;;;5013681;28;20033;-78
2022/10/29 05:03:08;;;;;;;83.18;8.88;;;12.90;1.00;;;;;;5013830;28;20464;-77
2022/10/29 05:05:36;;;;;;;82.50;8.98;;;13.00;1.00;;;;;;5013780;28;20040;-78
2022/10/29 05:08:03;;;;;;;75.82;8.43;;;13.10;1.00;;;;;;5013806;28;20029;-78
2022/10/29 05:10:31;;;;;;;42.40;7.97;;;13.00;1.00;;;;;;5013823;28;20017;-78
2022/10/29 05:13:02;;;;;;;83.85;9.48;;;13.00;1.00;;;;;;5013672;28;20033;-77
2022/10/29 05:15:28;;;;;;;93.80;10.10;;;13.00;1.00;;;;;;5013664;28;20017;-78
2022/10/29 05:17:55;;;;;;;85.35;10.13;;;13.10;1.00;;;;;;5013606;28;20477;-78
2022/10/29 05:20:21;;;;;;;50.15;8.73;;;13.10;1.00;;;;;;5013525;28;20044;-78
2022/10/29 05:22:47;;;;;;;52.28;9.15;;;13.10;1.00;;;;;;5013341;28;20026;-78
2022/10/29 05:25:13;;;;;;;86.28;10.20;;;13.10;1.00;;;;;;5013294;28;20457;-78
2022/10/29 05:27:38;;;;;;;59.78;8.98;;;13.10;1.00;;;;;;5013440;28;20025;-78
2022/10/29 05:30:05;;;;;;;38.88;9.48;;;13.00;1.00;;;;;;5013494;28;20042;-78
2022/10/29 05:32:30;;;;;;;105.05;10.10;;;13.10;1.00;;;;;;5013283;28;20424;-78
2022/10/29 05:34:56;;;;;;;59.97;9.02;;;13.10;1.00;;;;;;5013379;28;20030;-78
2022/10/29 05:37:26;;;;;;;73.82;10.10;;;13.10;1.00;;;;;;5013538;28;20096;-78
2022/10/29 05:39:52;;;;;;;94.47;10.82;;;13.10;1.00;;;;;;5013326;28;20025;-78
2022/10/29 05:42:18;;;;;;;71.28;9.65;;;13.00;1.00;;;;;;5013039;28;20030;-77
2022/10/29 05:44:43;;;;;;;67.90;9.05;;;13.10;1.00;;;;;;5013178;28;20045;-77
2022/10/29 05:47:09;;;;;;;94.43;10.05;;;13.10;1.00;;;;;;5012597;28;20508;-78
2022/10/29 05:49:35;;;;;;;88.03;10.23;;;13.10;1.00;;;;;;5012525;28;20048;-78
2022/10/29 05:52:00;;;;;;;53.95;8.18;;;13.10;1.00;;;;;;5012777;28;20101;-77
2022/10/29 05:54:27;;;;;;;90.63;9.95;;;13.10;1.00;;;;;;5012918;28;20475;-77
2022/10/29 05:56:52;;;;;;;103.85;9.57;;;13.10;1.00;;;;;;5013010;28;20041;-78
2022/10/29 05:59:18;;;;;;;97.53;10.52;;;13.30;1.00;;;;;;5012852;28;20022;-78
2022/10/29 06:01:44;;;;;;;168.07;12.18;;;13.10;1.00;;;;;;5013154;28;20025;-78
2022/10/29 06:04:09;;;;;;;70.88;9.05;;;13.20;1.00;;;;;;5012842;28;20461;-78
2022/10/29 06:06:35;;;;;;;93.57;10.25;;;13.10;1.00;;;;;;5012880;28;20022;-78
2022/10/29 06:09:00;;;;;;;79.50;9.85;;;13.20;1.00;;;;;;5012618;28;20026;-78
2022/10/29 06:11:26;;;;;;;99.40;10.68;;;13.30;1.00;;;;;;5012791;28;20097;-78
2022/10/29 06:13:54;;;;;;;59.10;9.82;;;13.20;1.00;;;;;;5012750;28;20030;-78
2022/10/29 06:16:20;;;;;;;59.28;9.88;;;13.20;1.00;;;;;;5012834;28;20053;-78
2022/10/29 06:18:46;;;;;;;96.68;11.65;;;13.20;1.00;;;;;;5012858;28;20057;-78
2022/10/29 06:21:12;;;;;;;59.78;9.00;;;13.30;1.00;;;;;;5012691;28;20038;-78
2022/10/29 06:23:37;;;;;;;72.65;9.98;;;13.20;1.00;;;;;;5008893;28;20478;-78
2022/10/29 06:26:03;;;;;;;80.75;9.88;;;13.30;1.00;;;;;;4993668;28;20076;-78
2022/10/29 06:28:30;;;;;;;99.35;10.50;;;13.30;1.00;;;;;;4993291;28;20022;-78
2022/10/29 06:30:55;;;;;;;44.70;8.65;;;13.30;1.00;;;;;;4993139;28;20061;-78
2022/10/29 06:33:21;;;;;;;86.28;9.57;;;13.40;1.00;;;;;;4993129;28;20054;-78
2022/10/29 06:35:47;;;;;;;85.95;9.38;;;13.40;1.00;;;;;;5008545;28;20044;-78
2022/10/29 06:38:13;;;;;;;60.53;10.00;;;13.50;1.00;;;;;;5010314;28;20044;-78
2022/10/29 06:40:40;;;;;;;57.47;9.30;;;13.40;1.00;;;;;;5010250;28;20058;-78
2022/10/29 06:43:09;;;;;;;95.18;10.00;;;13.40;1.00;;;;;;5009888;28;20117;-78
2022/10/29 06:45:34;;;;;;;102.78;10.13;;;13.40;1.00;;;;;;5010278;28;20045;-78
2022/10/29 06:48:00;;;;;;;77.00;9.73;;;13.50;1.00;;;;;;5009848;28;20108;-78
2022/10/29 06:50:27;;;;;;;90.95;10.38;;;13.50;1.00;;;;;;5006931;28;20033;-78
2022/10/29 06:52:58;;;;;;;76.88;11.30;;;13.60;1.00;;;;;;5010339;28;20227;-78
2022/10/29 06:55:23;;;;;;;118.43;14.02;;;13.60;1.00;;;;;;5010658;28;20076;-78
2022/10/29 06:58:01;;;;;;;122.32;13.63;;;13.70;1.00;;;;;;5010080;28;20425;-78
2022/10/29 07:00:27;;;;;;;125.20;14.27;;;13.70;1.00;;;;;;5004836;28;20058;-78
2022/10/29 07:02:53;;;;;;;89.95;15.00;;;13.70;1.00;;;;;;5012789;28;20390;-78
2022/10/29 07:05:20;;;;;;;77.28;14.80;;;13.70;1.00;;;;;;5006711;28;20481;-78
2022/10/29 07:07:46;;;;;;;84.18;15.40;;;13.80;1.00;;;;;;5013636;28;20022;-78
2022/10/29 07:10:12;;;;;;;132.55;18.10;;;13.90;1.00;;;;;;5013735;28;20022;-78
2022/10/29 07:12:41;;;;;;;138.63;17.75;;;13.90;1.00;;;;;;5013726;28;20032;-78
2022/10/29 07:15:08;;;;;;;89.40;16.25;;;13.90;1.00;;;;;;5000923;28;20037;-78
2022/10/29 07:17:34;;;;;;;110.93;16.55;;;13.90;1.00;;;;;;5013689;28;20384;-78
2022/10/29 07:19:59;;;;;;;93.88;16.05;;;13.90;1.00;;;;;;5013558;28;20026;-78
2022/10/29 07:22:25;;;;;;;73.53;14.73;;;13.90;1.00;;;;;;5025483;28;20022;-78
2022/10/29 07:24:50;;;;;;;55.70;13.05;;;13.90;1.00;;;;;;5013531;28;20026;-78
2022/10/29 07:27:16;;;;;;;70.88;13.57;;;13.90;1.00;;;;;;4999335;28;20018;-78
2022/10/29 07:29:42;;;;;;;64.22;11.25;;;13.90;1.00;;;;;;5001565;28;20030;-78
2022/10/29 07:32:07;;;;;;;60.13;11.73;;;13.80;1.00;;;;;;5013411;28;20032;-78
2022/10/29 07:34:33;;;;;;;77.47;11.73;;;13.90;1.00;;;;;;5013478;28;20469;-78
2022/10/29 07:36:58;;;;;;;95.60;11.55;;;14.10;1.00;;;;;;5013303;28;20026;-78
2022/10/29 07:39:24;;;;;;;43.40;10.00;;;13.90;99.90;;;;;;5013242;28;20058;-78
2022/10/29 07:41:49;;;;;;;65.93;10.60;;;13.80;99.90;;;;;;5012967;28;20052;-78
2022/10/29 07:44:15;;;;;;;53.22;10.00;;;13.90;99.90;;;;;;5013046;28;20030;-78
2022/10/29 07:46:40;;;;;;;82.22;10.88;;;14.10;99.90;;;;;;5012113;28;20030;-77
2022/10/29 07:49:06;;;;;;;45.05;9.63;;;14.30;99.90;;;;;;5001088;28;20085;-78
2022/10/29 07:51:32;;;;;;;51.30;10.38;;;14.30;99.90;;;;;;5012160;28;20025;-78
2022/10/29 07:53:57;;;;;;;74.00;11.93;;;14.60;99.90;;;;;;4995769;28;20018;-78
2022/10/29 07:56:24;;;;;;;61.15;11.93;;;14.50;99.90;;;;;;4994976;28;20098;-78
2022/10/29 07:58:49;;;;;;;44.65;11.20;;;14.70;99.90;;;;;;4997236;28;20501;-78
2022/10/29 08:01:16;;;;;;;74.57;13.48;;;14.80;99.90;;;;;;4995287;28;20057;-78
2022/10/29 08:03:42;;;;;;;56.55;13.05;;;14.50;99.90;;;;;;4995353;28;20037;-78
2022/10/29 08:06:07;;;;;;;57.35;14.05;;;14.60;99.90;;;;;;4996017;28;20034;-78
2022/10/29 08:08:33;;;;;;;55.25;13.93;;;14.70;99.90;;;;;;5001471;28;20435;-78
2022/10/29 08:11:03;;;;;;;50.70;15.80;;;14.90;99.90;;;;;;5011641;28;20022;-78
2022/10/29 08:13:29;;;;;;;47.58;14.68;;;15.00;99.90;;;;;;5012835;28;20374;-78
2022/10/29 08:15:55;;;;;;;48.55;15.63;;;15.10;99.90;;;;;;5012510;28;20026;-78
2022/10/29 08:18:21;;;;;;;44.78;15.88;;;15.30;99.90;;;;;;5002632;28;20474;-78
2022/10/29 08:20:47;;;;;;;43.53;15.13;;;15.70;99.90;;;;;;4995482;28;20038;-79
2022/10/29 08:23:13;;;;;;;39.70;14.38;;;15.80;99.90;;;;;;5024521;28;20030;-78
2022/10/29 08:25:42;;;;;;;34.63;15.05;;;15.60;99.90;;;;;;5012175;28;20109;-79
2022/10/29 08:28:10;;;;;;;34.90;13.77;;;15.50;99.90;;;;;;5012172;28;20029;-79
2022/10/29 08:30:36;;;;;;;35.88;13.80;;;15.60;99.90;;;;;;4999364;28;20030;-79
2022/10/29 08:33:03;;;;;;;37.42;13.75;;;15.70;99.90;;;;;;4996690;28;20023;-78
2022/10/29 08:35:29;;;;;;;33.70;14.10;;;15.60;99.90;;;;;;4995209;28;20026;-79
2022/10/29 08:37:56;;;;;;;33.17;13.90;;;15.60;99.90;;;;;;4995096;28;20031;-79
2022/10/29 08:40:40;;;;;;;30.08;13.05;;;15.90;99.90;;;;;;4995088;28;20026;-78
2022/10/29 08:43:20;;;;;;;23.02;12.25;;;16.10;99.90;;;;;;4994004;28;20033;-79
2022/10/29 08:45:51;;;;;;;30.02;12.20;;;16.50;99.90;;;;;;4997243;28;20500;-79
2022/10/29 08:48:37;;;;;;;26.98;11.93;;;16.50;99.90;;;;;;5005630;28;20128;-79
2022/10/29 08:51:32;;;;;;;27.90;13.60;;;16.60;99.90;;;;;;5005445;28;20018;-79
2022/10/29 08:53:58;;;;;;;30.95;13.65;;;16.50;99.90;;;;;;5009821;28;20029;-79
2022/10/29 08:56:29;;;;;;;25.08;13.70;;;16.50;99.90;;;;;;5011848;28;20018;-78
2022/10/29 08:59:09;;;;;;;26.83;13.88;;;16.20;99.90;;;;;;5008918;28;20112;-79
2022/10/29 09:01:36;;;;;;;32.42;14.18;;;16.10;99.90;;;;;;5011473;28;20033;-79
2022/10/29 09:04:11;;;;;;;30.33;14.32;;;16.20;99.90;;;;;;4993457;28;20035;-79
2022/10/29 09:07:06;;;;;;;29.63;14.07;;;16.10;99.90;;;;;;4992933;28;20026;-79
2022/10/29 09:09:43;;;;;;;27.67;13.52;;;15.80;99.90;;;;;;4981479;28;20532;-79
2022/10/29 09:12:40;;;;;;;30.15;14.13;;;15.70;99.90;;;;;;4996205;28;20022;-79
2022/10/29 09:15:09;;;;;;;32.20;13.70;;;15.80;99.90;;;;;;5002582;28;20022;-79
2022/10/29 09:18:11;;;;;;;31.88;13.60;;;15.80;99.90;;;;;;4991599;28;20026;-79
2022/10/29 09:20:50;;;;;;;31.92;13.48;;;15.50;99.90;;;;;;5004505;28;20030;-78
2022/10/29 09:23:53;;;;;;;30.70;13.38;;;15.90;99.90;;;;;;4991850;28;20029;-78
2022/10/29 09:26:29;;;;;;;28.88;13.48;;;16.60;99.90;;;;;;4998349;28;20050;-78
2022/10/29 09:29:41;;;;;;;31.48;14.35;;;16.60;99.90;;;;;;5013682;28;20022;-78
2022/10/29 09:32:12;;;;;;;25.05;12.43;;;17.00;99.90;;;;;;4995569;28;20035;-79
2022/10/29 09:34:43;;;;;;;25.58;12.70;;;17.50;99.90;;;;;;5012327;28;20281;-79
2022/10/29 09:37:24;;;;;;;27.58;13.13;;;18.00;99.90;;;;;;5011217;28;20037;-79
2022/10/29 09:39:50;;;;;;;24.65;12.68;;;17.70;99.90;;;;;;5011437;28;20056;-79
2022/10/29 09:42:37;;;;;;;27.92;12.68;;;17.60;99.90;;;;;;5011269;28;20026;-79
2022/10/29 09:45:08;;;;;;;24.30;11.13;;;17.40;99.90;;;;;;5003362;28;20397;-79
2022/10/29 09:47:34;;;;;;;23.92;11.70;;;17.60;99.90;;;;;;4999677;28;20106;-78
2022/10/29 09:50:24;;;;;;;23.10;12.20;;;17.80;99.90;;;;;;5010919;28;20093;-79
2022/10/29 09:52:51;;;;;;;24.75;11.88;;;17.90;98.70;;;;;;5010874;28;20022;-79
2022/10/29 09:55:24;;;;;;;24.45;12.60;;;18.20;99.90;;;;;;5010774;28;20068;-79
2022/10/29 09:57:51;;;;;;;22.70;12.35;;;18.10;98.20;;;;;;5009990;28;20020;-79
2022/10/29 10:00:21;;;;;;;23.15;10.95;;;18.20;98.50;;;;;;4999794;28;20029;-78
2022/10/29 10:03:14;;;;;;;23.83;11.18;;;18.20;94.40;;;;;;5013669;28;20056;-78
2022/10/29 10:06:00;;;;;;;23.95;11.48;;;18.50;95.70;;;;;;5013152;28;20026;-78
2022/10/29 10:08:26;;;;;;;23.77;11.90;;;18.40;86.40;;;;;;5012504;28;20485;-79
2022/10/29 10:11:05;;;;;;;26.30;11.43;;;18.40;91.90;;;;;;5003519;28;20018;-79
2022/10/29 10:13:48;;;;;;;22.38;11.00;;;18.90;80.30;;;;;;4999941;28;20076;-78
2022/10/29 10:16:23;;;;;;;17.70;9.05;;;19.20;79.80;;;;;;5010949;28;20034;-79
2022/10/29 10:18:49;;;;;;;22.75;10.57;;;19.30;57.20;;;;;;5010744;28;20030;-78
2022/10/29 10:21:26;;;;;;;20.42;10.48;;;18.90;58.80;;;;;;5014256;28;20021;-78
2022/10/29 10:23:54;;;;;;;17.92;10.30;;;19.40;49.30;;;;;;5017435;28;20038;-78
2022/10/29 10:26:44;;;;;;;19.42;9.02;;;19.80;54.90;;;;;;4998221;28;20050;-79
2022/10/29 10:29:18;;;;;;;19.23;10.45;;;19.70;44.70;;;;;;5010851;28;20026;-79
2022/10/29 10:31:45;;;;;;;16.65;8.80;;;19.20;42.10;;;;;;5010619;28;20033;-78
2022/10/29 10:34:18;;;;;;;18.67;8.90;;;19.40;54.20;;;;;;4998293;28;20026;-78
2022/10/29 10:36:56;;;;;;;17.48;9.30;;;19.90;51.30;;;;;;5014691;28;20083;-79
2022/10/29 10:39:27;;;;;;;18.40;8.38;;;20.60;43.60;;;;;;5001208;28;20400;-78
2022/10/29 10:41:55;;;;;;;13.13;8.30;;;20.70;39.10;;;;;;5005368;28;20177;-78
2022/10/29 10:44:21;;;;;;;17.38;9.05;;;20.40;29.30;;;;;;4995185;28;20234;-78
2022/10/29 10:46:50;;;;;;;16.02;7.80;;;20.00;33.70;;;;;;4994870;28;20045;-78
2022/10/29 10:49:33;;;;;;;14.32;7.72;;;20.20;26.90;;;;;;5013975;28;20050;-78
2022/10/29 10:52:02;;;;;;;16.17;8.80;;;20.50;28.10;;;;;;5009878;28;20019;-78
2022/10/29 10:54:33;;;;;;;16.25;9.15;;;20.40;25.60;;;;;;5001896;28;20027;-77
2022/10/29 10:57:03;;;;;;;18.00;10.00;;;20.80;25.20;;;;;;5001616;28;20156;-78
2022/10/29 10:59:53;;;;;;;16.55;10.38;;;20.70;22.70;;;;;;5013441;28;20026;-78
2022/10/29 11:02:34;;;;;;;18.45;10.55;;;20.00;25.60;;;;;;5010384;28;20124;-78
2022/10/29 11:05:13;;;;;;;17.45;9.48;;;19.20;28.70;;;;;;5007964;28;20033;-78
2022/10/29 11:07:41;;;;;;;19.65;10.07;;;19.50;28.60;;;;;;5000871;28;20037;-78
2022/10/29 11:10:11;;;;;;;19.73;11.27;;;19.50;29.00;;;;;;4995992;28;20524;-78
2022/10/29 11:12:46;;;;;;;17.95;10.98;;;20.00;31.20;;;;;;4996268;28;20026;-78
2022/10/29 11:15:14;;;;;;;24.20;12.43;;;19.70;30.60;;;;;;5015567;28;20499;-78
2022/10/29 11:18:01;;;;;;;21.27;12.50;;;19.90;32.10;;;;;;5015446;28;20018;-78
2022/10/29 11:20:32;;;;;;;27.50;13.77;;;20.40;30.10;;;;;;5015450;28;20447;-78
2022/10/29 11:23:20;;;;;;;22.42;14.32;;;20.20;31.60;;;;;;5015653;28;20021;-78
2022/10/29 11:26:18;;;;;;;24.88;13.77;;;20.20;29.10;;;;;;5015139;28;20121;-78
2022/10/29 11:29:01;;;;;;;25.40;13.80;;;20.20;30.10;;;;;;5014674;28;20026;-78
2022/10/29 11:32:05;;;;;;;22.67;14.27;;;19.90;35.00;;;;;;5015325;28;20045;-78
2022/10/29 11:34:36;;;;;;;22.92;13.32;;;20.10;34.70;;;;;;4999398;28;20115;-77
2022/10/29 11:37:11;;;;;;;25.02;13.40;;;20.00;34.60;;;;;;5014879;28;20022;-78
2022/10/29 11:39:50;;;;;;;24.02;13.73;;;20.00;32.30;;;;;;5014901;28;20018;-77
2022/10/29 11:42:15;;;;;;;27.52;14.55;;;20.20;36.20;;;;;;5014976;28;20377;-77
2022/10/29 11:44:41;;;;;;;26.08;14.18;;;20.30;33.80;;;;;;5014678;28;20045;-77
2022/10/29 11:47:30;;;;;;;25.38;14.35;;;20.00;33.10;;;;;;5013264;28;20024;-77
2022/10/29 11:50:01;;;;;;;23.15;13.93;;;19.70;35.10;;;;;;5014647;28;20040;-77
2022/10/29 11:52:42;;;;;;;26.00;14.90;;;19.60;34.70;;;;;;5014715;28;20014;-77
2022/10/29 11:55:19;;;;;;;23.88;13.18;;;19.50;38.50;;;;;;5014556;28;20026;-78
2022/10/29 11:58:08;;;;;;;20.42;13.40;;;19.90;40.10;;;;;;5014584;28;20022;-78
2022/10/29 12:01:00;;;;;;;26.73;13.77;;;20.50;32.60;;;;;;5014666;28;20029;-77
2022/10/29 12:04:02;;;;;;;26.73;13.90;;;20.60;29.50;;;;;;4986471;28;20034;-77
2022/10/29 12:06:46;;;;;;;26.15;13.82;;;20.60;28.50;;;;;;4994962;28;20121;-77
2022/10/29 12:09:14;;;;;;;28.15;14.90;;;20.60;30.30;;;;;;5007494;28;20053;-77
2022/10/29 12:12:11;;;;;;;28.35;14.15;;;20.30;30.30;;;;;;5014386;28;20441;-77
2022/10/29 12:15:12;;;;;;;25.23;14.38;;;20.20;35.30;;;;;;5014239;28;20021;-78
2022/10/29 12:17:56;;;;;;;30.27;14.25;;;20.20;37.90;;;;;;5000637;28;20113;-77
2022/10/29 12:20:26;;;;;;;24.92;13.40;;;20.30;31.10;;;;;;5014166;28;20022;-77
2022/10/29 12:23:01;;;;;;;23.88;13.02;;;20.00;33.80;;;;;;5014190;28;20022;-77
2022/10/29 12:25:45;;;;;;;30.75;13.23;;;19.90;32.00;;;;;;5014042;28;20034;-77
2022/10/29 12:28:55;;;;;;;23.05;13.38;;;20.20;34.10;;;;;;4994815;28;20511;-77
2022/10/29 12:31:34;;;;;;;22.98;12.52;;;20.20;31.80;;;;;;4971544;28;20092;-78
2022/10/29 12:34:34;;;;;;;22.02;12.60;;;20.40;30.30;;;;;;4994407;28;20014;-78
2022/10/29 12:37:17;;;;;;;24.52;12.90;;;20.40;37.30;;;;;;4995030;28;20038;-78
2022/10/29 12:40:13;;;;;;;22.02;12.60;;;20.40;29.20;;;;;;5013857;28;20014;-78
2022/10/29 12:42:39;;;;;;;22.05;11.75;;;20.60;35.00;;;;;;5009711;28;20030;-78
2022/10/29 12:45:27;;;;;;;22.50;11.73;;;20.80;28.70;;;;;;5013851;28;20034;-78
2022/10/29 12:48:16;;;;;;;21.73;11.90;;;20.90;30.10;;;;;;5013580;28;20536;-78
2022/10/29 12:50:56;;;;;;;22.92;11.32;;;20.90;27.30;;;;;;5013784;28;20076;-78
2022/10/29 12:53:33;;;;;;;22.92;12.10;;;21.30;28.30;;;;;;5013886;28;20029;-78
2022/10/29 12:55:58;;;;;;;25.40;11.77;;;21.30;26.10;;;;;;5013561;28;20068;-78
2022/10/29 12:58:55;;;;;;;22.35;11.48;;;21.40;24.60;;;;;;5013308;28;20026;-78